createdAt,value
2023-03-02T00:01:56.448Z,1.14
2023-03-02T00:04:29.997Z,1.12
2023-03-02T00:07:02.063Z,1.16
2023-03-02T00:09:30.246Z,1.19
2023-03-02T00:11:58.351Z,1.12
2023-03-02T00:14:25.996Z,1.24
2023-03-02T00:16:53.514Z,1.13
2023-03-02T00:19:21.429Z,1.19
2023-03-02T00:21:48.915Z,1.17
2023-03-02T00:24:17.714Z,1.18
2023-03-02T00:26:45.698Z,1.21
2023-03-02T00:29:13.203Z,1.17
2023-03-02T00:31:40.746Z,1.17
2023-03-02T00:34:08.276Z,1.18
2023-03-02T00:36:35.810Z,1.21
2023-03-02T00:39:04.450Z,1.16
2023-03-02T00:41:33.316Z,1.16
2023-03-02T00:44:00.880Z,1.12
2023-03-02T00:46:28.698Z,1.12
2023-03-02T00:48:56.279Z,1.13
2023-03-02T00:51:24.989Z,1.05
2023-03-02T00:53:52.468Z,1.11
2023-03-02T00:56:19.948Z,1.12
2023-03-02T00:58:48.754Z,1.06
2023-03-02T01:01:18.494Z,1.07
2023-03-02T01:03:46.235Z,1.14
2023-03-02T01:06:18.748Z,1.05
2023-03-02T01:08:46.741Z,1.05
2023-03-02T01:11:15.728Z,1.04
2023-03-02T01:13:43.471Z,1.07
2023-03-02T01:16:12.838Z,1.06
2023-03-02T01:18:40.880Z,1.17
2023-03-02T01:21:11.826Z,1.16
2023-03-02T01:23:39.309Z,1.23
2023-03-02T01:26:07.606Z,1.23
2023-03-02T01:28:35.216Z,1.18
2023-03-02T01:31:04.452Z,1.11
2023-03-02T01:33:33.723Z,1.09
2023-03-02T01:36:01.316Z,1.12
2023-03-02T01:38:29.455Z,1.01
2023-03-02T01:40:57.230Z,1.26
2023-03-02T01:43:24.988Z,1.31
2023-03-02T01:45:55.517Z,1.23
2023-03-02T01:48:28.431Z,1.19
2023-03-02T01:50:58.341Z,1.23
2023-03-02T01:53:28.847Z,1.21
2023-03-02T01:55:58.016Z,1.17
2023-03-02T01:58:27.337Z,1.07
2023-03-02T02:00:57.340Z,1.15
2023-03-02T02:03:28.330Z,1.13
2023-03-02T02:06:07.104Z,1.09
2023-03-02T02:08:34.932Z,1.18
2023-03-02T02:11:02.425Z,1.14
2023-03-02T02:13:29.925Z,1.09
2023-03-02T02:15:57.409Z,1.17
2023-03-02T02:18:24.963Z,1.10
2023-03-02T02:20:55.387Z,1.05
2023-03-02T02:23:29.544Z,1.07
2023-03-02T02:26:18.305Z,0.99
2023-03-02T02:28:52.009Z,1.10
2023-03-02T02:31:26.565Z,0.99
2023-03-02T02:33:58.562Z,1.13
2023-03-02T02:36:33.184Z,1.34
2023-03-02T02:39:04.405Z,1.24
2023-03-02T02:41:36.571Z,1.04
2023-03-02T02:44:04.192Z,0.97
2023-03-02T02:46:33.939Z,1.09
2023-03-02T02:49:03.957Z,0.95
2023-03-02T02:51:31.941Z,0.95
2023-03-02T02:54:01.294Z,0.90
2023-03-02T02:56:32.603Z,0.86
2023-03-02T02:59:05.659Z,0.82
2023-03-02T03:01:34.953Z,0.88
2023-03-02T03:04:04.029Z,0.86
2023-03-02T03:06:38.308Z,0.92
2023-03-02T03:09:06.882Z,0.90
2023-03-02T03:11:37.007Z,0.92
2023-03-02T03:14:09.752Z,0.85
2023-03-02T03:16:40.053Z,0.91
2023-03-02T03:19:13.765Z,0.99
2023-03-02T03:21:41.228Z,0.93
2023-03-02T03:24:09.167Z,1.14
2023-03-02T03:26:36.792Z,1.44
2023-03-02T03:29:04.935Z,1.15
2023-03-02T03:31:33.809Z,0.86
2023-03-02T03:34:01.620Z,0.95
2023-03-02T03:36:31.453Z,1.06
2023-03-02T03:39:00.124Z,0.95
2023-03-02T03:41:28.282Z,0.89
2023-03-02T03:43:56.093Z,0.82
2023-03-02T03:46:23.713Z,0.85
2023-03-02T03:48:52.658Z,0.79
2023-03-02T03:51:20.453Z,0.70
2023-03-02T03:53:59.778Z,0.84
2023-03-02T03:56:27.585Z,0.84
2023-03-02T03:59:06.739Z,0.85
2023-03-02T04:01:35.863Z,0.71
2023-03-02T04:04:06.317Z,0.75
2023-03-02T04:06:34.219Z,0.73
2023-03-02T04:09:05.101Z,0.76
2023-03-02T04:11:32.935Z,0.76
2023-03-02T04:14:00.591Z,0.79
2023-03-02T04:16:28.729Z,0.82
2023-03-02T04:18:56.924Z,0.88
2023-03-02T04:21:25.963Z,0.85
2023-03-02T04:23:53.520Z,0.82
2023-03-02T04:26:21.040Z,0.89
2023-03-02T04:28:50.666Z,0.77
2023-03-02T04:31:18.360Z,0.70
2023-03-02T04:33:46.046Z,0.58
2023-03-02T04:36:13.534Z,0.77
2023-03-02T04:38:42.363Z,0.76
2023-03-02T04:41:09.854Z,0.61
2023-03-02T04:43:37.449Z,0.76
2023-03-02T04:46:05.230Z,0.59
2023-03-02T04:48:32.805Z,0.52
2023-03-02T04:51:00.282Z,0.56
2023-03-02T04:53:27.871Z,0.57
2023-03-02T04:55:56.689Z,0.61
2023-03-02T04:58:24.241Z,0.49
2023-03-02T05:00:51.772Z,0.53
2023-03-02T05:03:19.257Z,0.54
2023-03-02T05:05:46.722Z,0.61
2023-03-02T05:08:14.786Z,0.59
2023-03-02T05:10:42.305Z,0.65
2023-03-02T05:13:11.118Z,0.52
2023-03-02T05:15:43.500Z,0.54
2023-03-02T05:18:12.430Z,0.53
2023-03-02T05:20:40.710Z,0.53
2023-03-02T05:23:25.227Z,0.51
2023-03-02T05:25:54.486Z,0.55
2023-03-02T05:28:25.204Z,0.62
2023-03-02T05:30:53.295Z,0.62
2023-03-02T05:33:21.653Z,0.64
2023-03-02T05:35:49.582Z,0.54
2023-03-02T05:38:17.402Z,0.59
2023-03-02T05:40:45.073Z,0.52
2023-03-02T05:43:16.824Z,0.42
2023-03-02T05:45:45.777Z,0.48
2023-03-02T05:48:14.639Z,0.45
2023-03-02T05:50:42.300Z,0.53
2023-03-02T05:53:09.947Z,0.61
2023-03-02T05:55:37.472Z,0.56
2023-03-02T05:58:05.271Z,0.51
2023-03-02T06:00:32.757Z,0.60
2023-03-02T06:03:01.616Z,0.61
2023-03-02T06:05:29.084Z,0.50
2023-03-02T06:07:56.586Z,0.58
2023-03-02T06:10:24.698Z,0.58
2023-03-02T06:12:52.728Z,0.57
2023-03-02T06:15:20.530Z,0.56
2023-03-02T06:17:48.305Z,0.60
2023-03-02T06:20:18.504Z,0.54
2023-03-02T06:22:47.685Z,0.58
2023-03-02T06:25:18.025Z,0.64
2023-03-02T06:27:45.915Z,0.77
2023-03-02T06:30:16.922Z,0.71
2023-03-02T06:32:45.910Z,0.79
2023-03-02T06:35:14.241Z,0.85
2023-03-02T06:37:44.377Z,0.90
2023-03-02T06:40:13.897Z,0.90
2023-03-02T06:42:43.292Z,0.93
2023-03-02T06:45:12.059Z,0.99
2023-03-02T06:47:40.066Z,1.01
2023-03-02T06:50:08.413Z,1.01
2023-03-02T06:52:36.292Z,1.10
2023-03-02T06:55:06.041Z,1.14
2023-03-02T06:57:34.575Z,1.18
2023-03-02T07:00:07.591Z,1.17
2023-03-02T07:02:35.102Z,1.33
2023-03-02T07:05:02.776Z,1.43
2023-03-02T07:07:30.228Z,1.38
2023-03-02T07:09:57.676Z,1.48
2023-03-02T07:12:26.518Z,1.73
2023-03-02T07:14:54.042Z,1.66
2023-03-02T07:17:21.593Z,1.51
2023-03-02T07:19:49.133Z,1.65
2023-03-02T07:22:16.622Z,1.76
2023-03-02T07:24:45.043Z,1.88
2023-03-02T07:27:12.887Z,1.88
2023-03-02T07:29:41.680Z,2.19
2023-03-02T07:32:12.075Z,2.80
2023-03-02T07:34:39.965Z,3.52
2023-03-02T07:37:07.425Z,4.16
2023-03-02T07:39:34.959Z,4.74
2023-03-02T07:42:04.347Z,5.18
2023-03-02T07:44:32.020Z,5.31
2023-03-02T07:47:00.822Z,5.60
2023-03-02T07:49:28.268Z,5.34
2023-03-02T07:51:55.714Z,5.41
2023-03-02T07:54:26.346Z,5.32
2023-03-02T07:56:53.818Z,5.49
2023-03-02T07:59:21.285Z,5.84
2023-03-02T08:01:48.747Z,5.81
2023-03-02T08:04:17.633Z,6.04
2023-03-02T08:06:45.134Z,6.66
2023-03-02T08:09:14.101Z,6.73
2023-03-02T08:11:42.866Z,6.34
2023-03-02T08:14:10.311Z,6.09
2023-03-02T08:16:37.866Z,6.72
2023-03-02T08:19:05.383Z,6.52
2023-03-02T08:21:34.654Z,6.46
2023-03-02T08:24:02.455Z,6.53
2023-03-02T08:26:30.034Z,6.59
2023-03-02T08:28:57.505Z,6.51
2023-03-02T08:31:25.022Z,6.97
2023-03-02T08:33:52.527Z,7.22
2023-03-02T08:36:21.150Z,7.45
2023-03-02T08:38:50.721Z,7.76
2023-03-02T08:41:20.495Z,8.05
2023-03-02T08:43:48.386Z,7.54
2023-03-02T08:46:18.511Z,7.40
2023-03-02T08:48:46.485Z,7.56
2023-03-02T08:51:15.939Z,7.69
2023-03-02T08:53:45.124Z,7.68
2023-03-02T08:56:18.747Z,8.32
2023-03-02T08:58:46.458Z,8.11
2023-03-02T09:01:15.037Z,7.73
2023-03-02T09:03:42.801Z,8.02
2023-03-02T09:06:10.835Z,8.14
2023-03-02T09:08:38.434Z,8.02
2023-03-02T09:11:06.409Z,8.15
2023-03-02T09:13:35.706Z,8.45
2023-03-02T09:16:03.710Z,8.69
2023-03-02T09:18:32.011Z,9.07
2023-03-02T09:20:59.686Z,9.02
2023-03-02T09:23:27.800Z,8.90
2023-03-02T09:25:55.627Z,9.20
2023-03-02T09:28:32.267Z,8.74
2023-03-02T09:31:02.596Z,8.92
2023-03-02T09:33:30.932Z,8.72
2023-03-02T09:35:58.642Z,9.04
2023-03-02T09:38:26.230Z,9.52
2023-03-02T09:41:21.587Z,9.93
2023-03-02T09:44:00.027Z,9.73
2023-03-02T09:46:34.741Z,10.17
2023-03-02T09:49:15.855Z,10.13
2023-03-02T09:51:48.072Z,10.33
2023-03-02T09:54:32.240Z,10.11
2023-03-02T09:57:00.780Z,10.73
2023-03-02T09:59:32.231Z,11.15
2023-03-02T10:02:04.855Z,10.96
2023-03-02T10:04:38.680Z,11.45
2023-03-02T10:07:13.646Z,10.38
2023-03-02T10:09:41.834Z,10.60
2023-03-02T10:12:42.389Z,11.05
2023-03-02T10:15:16.214Z,11.12
2023-03-02T10:17:57.394Z,11.28
2023-03-02T10:20:34.208Z,10.88
2023-03-02T10:23:14.360Z,11.62
2023-03-02T10:25:48.564Z,11.98
2023-03-02T10:28:20.790Z,11.98
2023-03-02T10:30:59.089Z,12.21
2023-03-02T10:33:28.455Z,12.07
2023-03-02T10:35:56.011Z,11.57
2023-03-02T10:38:25.019Z,11.10
2023-03-02T10:40:59.917Z,11.08
2023-03-02T10:43:32.361Z,11.03
2023-03-02T10:46:04.627Z,11.36
2023-03-02T10:48:32.259Z,11.16
2023-03-02T10:51:00.413Z,11.29
2023-03-02T10:53:28.977Z,11.69
2023-03-02T10:55:56.593Z,11.77
2023-03-02T10:58:30.187Z,12.25
2023-03-02T11:00:59.882Z,12.34
2023-03-02T11:03:29.740Z,11.98
2023-03-02T11:05:58.332Z,12.00
2023-03-02T11:08:28.108Z,11.77
2023-03-02T11:11:00.619Z,11.66
2023-03-02T11:13:31.501Z,12.21
2023-03-02T11:16:01.320Z,12.38
2023-03-02T11:18:35.469Z,11.82
2023-03-02T11:21:05.945Z,12.27
2023-03-02T11:23:49.146Z,12.58
2023-03-02T11:26:21.992Z,12.77
2023-03-02T11:28:59.455Z,11.70
2023-03-02T11:31:37.737Z,11.74
2023-03-02T11:34:31.968Z,11.45
2023-03-02T11:37:07.186Z,12.03
2023-03-02T11:39:55.350Z,12.41
2023-03-02T11:42:27.603Z,12.51
2023-03-02T11:44:56.411Z,13.09
2023-03-02T11:47:24.143Z,12.90
2023-03-02T11:49:55.913Z,13.42
2023-03-02T11:52:27.121Z,12.20
2023-03-02T11:54:59.862Z,12.06
2023-03-02T11:57:32.422Z,11.98
2023-03-02T12:00:00.788Z,12.32
2023-03-02T12:02:28.988Z,12.38
2023-03-02T12:05:05.967Z,12.21
2023-03-02T12:07:33.618Z,12.84
2023-03-02T12:10:03.713Z,13.30
2023-03-02T12:12:41.702Z,13.88
2023-03-02T12:15:36.173Z,13.73
2023-03-02T12:18:03.915Z,14.41
2023-03-02T12:20:34.827Z,15.32
2023-03-02T12:23:10.881Z,15.52
2023-03-02T12:25:43.805Z,14.08
2023-03-02T12:28:27.425Z,13.25
2023-03-02T12:31:03.487Z,13.59
2023-03-02T12:33:30.957Z,13.19
2023-03-02T12:36:13.524Z,12.99
2023-03-02T12:38:47.754Z,13.30
2023-03-02T12:41:27.458Z,14.04
2023-03-02T12:44:06.830Z,14.27
2023-03-02T12:46:36.662Z,13.76
2023-03-02T12:49:30.548Z,13.41
2023-03-02T12:52:01.229Z,14.10
2023-03-02T12:54:31.518Z,14.26
2023-03-02T12:57:08.755Z,13.63
2023-03-02T12:59:37.135Z,14.11
2023-03-02T13:02:14.834Z,14.00
2023-03-02T13:04:42.420Z,14.15
2023-03-02T13:07:19.183Z,14.39
2023-03-02T13:09:56.595Z,14.30
2023-03-02T13:12:26.921Z,13.47
2023-03-02T13:14:57.238Z,13.57
2023-03-02T13:17:29.460Z,13.77
2023-03-02T13:19:57.242Z,13.99
2023-03-02T13:22:27.142Z,13.87
2023-03-02T13:24:59.041Z,13.42
2023-03-02T13:27:27.712Z,13.39
2023-03-02T13:29:56.656Z,13.63
2023-03-02T13:32:26.271Z,14.08
2023-03-02T13:34:56.243Z,14.09
2023-03-02T13:37:37.561Z,13.01
2023-03-02T13:40:08.751Z,13.72
2023-03-02T13:42:38.277Z,13.29
2023-03-02T13:45:25.857Z,13.22
2023-03-02T13:47:54.082Z,13.24
2023-03-02T13:50:24.419Z,13.64
2023-03-02T13:52:56.169Z,14.71
2023-03-02T13:55:24.667Z,14.83
2023-03-02T13:57:53.827Z,14.56
2023-03-02T14:00:26.681Z,14.47
2023-03-02T14:02:54.107Z,14.16
2023-03-02T14:05:23.854Z,13.73
2023-03-02T14:07:52.757Z,13.25
2023-03-02T14:10:21.279Z,13.69
2023-03-02T14:12:57.017Z,13.62
2023-03-02T14:15:24.684Z,13.64
2023-03-02T14:17:52.191Z,13.70
2023-03-02T14:20:21.391Z,13.36
2023-03-02T14:22:50.452Z,13.84
2023-03-02T14:25:20.433Z,13.66
2023-03-02T14:27:47.999Z,13.57
2023-03-02T14:30:18.740Z,13.13
2023-03-02T14:32:46.659Z,13.42
2023-03-02T14:35:16.645Z,13.70
2023-03-02T14:37:47.850Z,13.54
2023-03-02T14:40:24.080Z,13.31
2023-03-02T14:42:53.111Z,13.89
2023-03-02T14:45:21.115Z,14.26
2023-03-02T14:47:48.880Z,13.98
2023-03-02T14:50:17.433Z,13.12
2023-03-02T14:52:48.772Z,13.25
2023-03-02T14:55:23.623Z,12.80
2023-03-02T14:57:54.994Z,12.67
2023-03-02T15:00:22.949Z,12.49
2023-03-02T15:02:51.138Z,12.88
2023-03-02T15:05:18.794Z,12.62
2023-03-02T15:07:46.886Z,12.13
2023-03-02T15:10:17.226Z,11.16
2023-03-02T15:12:46.785Z,11.18
2023-03-02T15:15:14.853Z,11.17
2023-03-02T15:17:42.712Z,10.95
2023-03-02T15:20:15.725Z,11.00
2023-03-02T15:22:43.318Z,10.87
2023-03-02T15:25:11.150Z,10.59
2023-03-02T15:27:38.751Z,10.73
2023-03-02T15:30:09.052Z,10.87
2023-03-02T15:32:37.613Z,10.94
2023-03-02T15:35:05.687Z,10.74
2023-03-02T15:37:33.229Z,10.63
2023-03-02T15:40:00.748Z,10.70
2023-03-02T15:42:28.211Z,10.81
2023-03-02T15:44:55.740Z,10.69
2023-03-02T15:47:24.782Z,10.72
2023-03-02T15:49:52.251Z,10.60
2023-03-02T15:52:20.917Z,10.68
2023-03-02T15:54:48.549Z,10.56
2023-03-02T15:57:17.320Z,10.49
2023-03-02T15:59:46.159Z,10.27
2023-03-02T16:02:15.048Z,10.24
2023-03-02T16:04:43.896Z,10.26
2023-03-02T16:07:11.358Z,10.33
2023-03-02T16:09:38.804Z,10.18
2023-03-02T16:12:06.836Z,10.31
2023-03-02T16:14:34.776Z,10.23
2023-03-02T16:17:02.269Z,10.04
2023-03-02T16:19:29.901Z,9.90
2023-03-02T16:21:58.719Z,9.97
2023-03-02T16:24:26.455Z,9.92
2023-03-02T16:26:54.432Z,10.12
2023-03-02T16:29:22.645Z,9.48
2023-03-02T16:31:50.191Z,9.31
2023-03-02T16:34:17.961Z,9.41
2023-03-02T16:36:45.853Z,9.63
2023-03-02T16:39:15.234Z,9.22
2023-03-02T16:41:46.099Z,9.21
2023-03-02T16:44:14.470Z,8.98
2023-03-02T16:46:43.314Z,8.80
2023-03-02T16:49:11.750Z,8.69
2023-03-02T16:51:39.783Z,8.58
2023-03-02T16:54:07.398Z,8.45
2023-03-02T16:56:36.220Z,8.35
2023-03-02T16:59:03.712Z,8.42
2023-03-02T17:01:31.349Z,8.10
2023-03-02T17:03:58.970Z,8.04
2023-03-02T17:06:26.548Z,7.81
2023-03-02T17:08:54.042Z,7.95
2023-03-02T17:11:22.002Z,7.83
2023-03-02T17:13:50.857Z,7.86
2023-03-02T17:16:19.171Z,7.71
2023-03-02T17:18:47.005Z,7.69
2023-03-02T17:21:17.128Z,7.74
2023-03-02T17:23:45.370Z,7.47
2023-03-02T17:26:12.850Z,7.47
2023-03-02T17:28:40.388Z,7.42
2023-03-02T17:31:09.564Z,7.43
2023-03-02T17:33:38.833Z,7.31
2023-03-02T17:36:09.289Z,7.32
2023-03-02T17:38:36.798Z,7.20
2023-03-02T17:41:05.182Z,7.04
2023-03-02T17:43:34.257Z,6.76
2023-03-02T17:46:20.158Z,6.58
2023-03-02T17:48:48.884Z,6.64
2023-03-02T17:51:16.870Z,6.82
2023-03-02T17:53:44.987Z,6.65
2023-03-02T17:56:13.370Z,6.70
2023-03-02T17:58:45.037Z,6.77
2023-03-02T18:01:15.564Z,6.97
2023-03-02T18:03:44.901Z,7.05
2023-03-02T18:06:13.147Z,7.15
2023-03-02T18:08:40.839Z,6.80
2023-03-02T18:11:08.347Z,6.69
2023-03-02T18:13:35.841Z,6.47
2023-03-02T18:16:03.444Z,6.21
2023-03-02T18:18:32.288Z,5.92
2023-03-02T18:20:59.817Z,5.75
2023-03-02T18:23:27.699Z,5.82
2023-03-02T18:25:55.186Z,5.87
2023-03-02T18:28:22.733Z,6.00
2023-03-02T18:30:50.435Z,5.90
2023-03-02T18:33:18.057Z,5.81
2023-03-02T18:35:47.020Z,5.89
2023-03-02T18:38:14.502Z,5.78
2023-03-02T18:40:42.042Z,5.99
2023-03-02T18:43:09.554Z,5.75
2023-03-02T18:45:37.054Z,5.55
2023-03-02T18:48:05.356Z,5.57
2023-03-02T18:50:32.919Z,5.70
2023-03-02T18:53:01.850Z,5.67
2023-03-02T18:55:29.338Z,5.68
2023-03-02T18:57:56.881Z,5.63
2023-03-02T19:00:28.249Z,5.73
2023-03-02T19:02:55.831Z,5.61
2023-03-02T19:05:26.822Z,5.67
2023-03-02T19:07:54.696Z,5.73
2023-03-02T19:10:23.511Z,5.70
2023-03-02T19:12:51.113Z,5.80
2023-03-02T19:15:19.440Z,5.85
2023-03-02T19:17:47.024Z,5.59
2023-03-02T19:20:17.201Z,5.70
2023-03-02T19:22:44.791Z,5.72
2023-03-02T19:25:12.473Z,5.78
2023-03-02T19:27:41.733Z,5.49
2023-03-02T19:30:15.277Z,5.28
2023-03-02T19:32:42.798Z,5.31
2023-03-02T19:35:13.479Z,5.23
2023-03-02T19:37:41.039Z,5.26
2023-03-02T19:40:10.114Z,5.22
2023-03-02T19:42:39.346Z,5.15
2023-03-02T19:45:12.470Z,5.10
2023-03-02T19:47:39.934Z,5.13
2023-03-02T19:50:08.457Z,4.96
2023-03-02T19:52:35.937Z,4.89
2023-03-02T19:55:03.414Z,5.02
2023-03-02T19:57:31.157Z,4.95
2023-03-02T19:59:59.320Z,4.93
2023-03-02T20:02:28.221Z,4.80
2023-03-02T20:04:55.720Z,4.72
2023-03-02T20:07:23.202Z,4.64
2023-03-02T20:09:50.691Z,4.55
2023-03-02T20:12:19.727Z,4.43
2023-03-02T20:14:49.197Z,4.45
2023-03-02T20:17:16.855Z,4.41
2023-03-02T20:19:45.710Z,4.52
2023-03-02T20:22:13.254Z,4.52
2023-03-02T20:24:41.260Z,4.46
2023-03-02T20:27:09.245Z,4.53
2023-03-02T20:29:38.288Z,4.51
2023-03-02T20:32:08.889Z,4.35
2023-03-02T20:34:36.647Z,4.52
2023-03-02T20:37:06.407Z,4.50
2023-03-02T20:39:36.929Z,4.39
2023-03-02T20:42:05.731Z,4.61
2023-03-02T20:44:33.656Z,4.45
2023-03-02T20:47:08.171Z,4.62
2023-03-02T20:49:37.030Z,4.74
2023-03-02T20:52:07.774Z,4.69
2023-03-02T20:54:37.738Z,4.79
2023-03-02T20:57:08.311Z,4.58
2023-03-02T20:59:37.049Z,4.40
2023-03-02T21:02:05.044Z,4.07
2023-03-02T21:04:33.189Z,4.13
2023-03-02T21:07:00.911Z,4.39
2023-03-02T21:09:29.754Z,4.71
2023-03-02T21:11:58.786Z,4.52
2023-03-02T21:14:27.344Z,4.13
2023-03-02T21:16:55.312Z,4.15
2023-03-02T21:19:23.697Z,4.08
2023-03-02T21:21:51.218Z,4.01
2023-03-02T21:24:20.576Z,3.81
2023-03-02T21:26:51.255Z,3.71
2023-03-02T21:29:20.028Z,3.69
2023-03-02T21:31:47.779Z,3.74
2023-03-02T21:34:16.750Z,3.87
2023-03-02T21:36:44.443Z,3.70
2023-03-02T21:39:12.236Z,3.56
2023-03-02T21:41:40.227Z,3.49
2023-03-02T21:44:09.183Z,3.41
2023-03-02T21:46:38.444Z,3.45
2023-03-02T21:49:06.085Z,3.53
2023-03-02T21:51:33.970Z,3.76
2023-03-02T21:54:01.586Z,3.70
2023-03-02T21:56:29.145Z,3.49
2023-03-02T21:58:58.263Z,3.37
2023-03-02T22:01:29.529Z,3.36
2023-03-02T22:03:57.364Z,3.40
2023-03-02T22:06:27.386Z,3.39
2023-03-02T22:08:55.657Z,3.47
2023-03-02T22:11:25.089Z,3.41
2023-03-02T22:13:55.193Z,3.88
2023-03-02T22:16:24.843Z,4.09
2023-03-02T22:18:57.956Z,3.91
2023-03-02T22:21:30.018Z,4.16
2023-03-02T22:24:18.862Z,3.95
2023-03-02T22:26:48.639Z,3.73
2023-03-02T22:29:17.533Z,4.19
2023-03-02T22:31:47.837Z,4.19
2023-03-02T22:34:20.603Z,3.77
2023-03-02T22:36:48.485Z,4.08
2023-03-02T22:39:19.061Z,4.25
2023-03-02T22:41:46.567Z,4.47
2023-03-02T22:44:15.135Z,4.85
2023-03-02T22:46:42.814Z,4.77
2023-03-02T22:49:17.549Z,4.86
2023-03-02T22:51:46.419Z,4.92
2023-03-02T22:54:23.030Z,5.06
2023-03-02T22:56:52.532Z,4.83
2023-03-02T22:59:24.719Z,4.28
2023-03-02T23:01:53.314Z,3.95
2023-03-02T23:04:23.856Z,3.85
2023-03-02T23:06:54.677Z,3.92
2023-03-02T23:09:24.520Z,3.83
2023-03-02T23:11:59.855Z,3.46
2023-03-02T23:14:29.299Z,3.66
2023-03-02T23:17:00.115Z,3.85
2023-03-02T23:19:28.660Z,3.73
2023-03-02T23:21:57.923Z,3.42
2023-03-02T23:24:25.979Z,3.08
2023-03-02T23:26:54.232Z,3.08
2023-03-02T23:29:22.312Z,3.02
2023-03-02T23:31:50.493Z,3.10
2023-03-02T23:34:18.198Z,3.07
2023-03-02T23:36:45.671Z,2.83
2023-03-02T23:39:14.832Z,3.19
2023-03-02T23:41:42.476Z,2.88
2023-03-02T23:44:10.089Z,3.03
2023-03-02T23:46:37.560Z,2.90
2023-03-02T23:49:05.166Z,2.91
2023-03-02T23:51:33.105Z,2.73
2023-03-02T23:54:02.342Z,2.71
2023-03-02T23:56:32.490Z,2.80
2023-03-02T23:58:59.966Z,2.90
